createdAt,value
2022-10-05T00:00:22.278Z,9.36
2022-10-05T00:01:22.280Z,9.34
2022-10-05T00:02:22.249Z,9.34
2022-10-05T00:03:22.260Z,9.29
2022-10-05T00:04:22.234Z,9.25
2022-10-05T00:05:22.306Z,9.25
2022-10-05T00:06:22.208Z,9.32
2022-10-05T00:07:22.188Z,9.40
2022-10-05T00:08:22.178Z,9.50
2022-10-05T00:09:22.188Z,9.62
2022-10-05T00:10:22.167Z,9.74
2022-10-05T00:11:22.152Z,9.87
2022-10-05T00:12:22.139Z,9.99
2022-10-05T00:13:22.128Z,10.10
2022-10-05T00:14:22.119Z,10.15
2022-10-05T00:15:22.117Z,10.22
2022-10-05T00:16:22.148Z,10.26
2022-10-05T00:17:22.088Z,10.38
2022-10-05T00:18:22.080Z,10.46
2022-10-05T00:19:22.059Z,10.54
2022-10-05T00:20:22.077Z,10.60
2022-10-05T00:21:22.038Z,10.67
2022-10-05T00:22:22.027Z,10.68
2022-10-05T00:23:22.017Z,10.68
2022-10-05T00:24:22.007Z,10.69
2022-10-05T00:25:21.998Z,10.69
2022-10-05T00:26:21.997Z,10.71
2022-10-05T00:27:21.967Z,10.71
2022-10-05T00:28:22.040Z,10.68
2022-10-05T00:29:21.949Z,10.71
2022-10-05T00:30:21.946Z,10.74
2022-10-05T00:31:21.977Z,10.75
2022-10-05T00:32:21.917Z,10.75
2022-10-05T00:33:21.898Z,10.76
2022-10-05T00:34:21.897Z,10.76
2022-10-05T00:35:21.880Z,10.78
2022-10-05T00:36:21.878Z,10.78
2022-10-05T00:37:21.878Z,10.82
2022-10-05T00:38:21.855Z,10.84
2022-10-05T00:39:21.838Z,10.84
2022-10-05T00:40:21.829Z,10.84
2022-10-05T00:41:21.817Z,10.81
2022-10-05T00:42:21.808Z,10.76
2022-10-05T00:43:21.809Z,10.81
2022-10-05T00:44:21.786Z,10.79
2022-10-05T00:45:21.768Z,10.79
2022-10-05T00:46:21.827Z,10.78
2022-10-05T00:47:21.748Z,10.82
2022-10-05T00:48:21.744Z,10.84
2022-10-05T00:49:21.748Z,10.87
2022-10-05T00:50:21.717Z,10.90
2022-10-05T00:51:21.697Z,10.90
2022-10-05T00:52:21.696Z,10.86
2022-10-05T00:53:21.679Z,10.81
2022-10-05T00:54:21.670Z,10.75
2022-10-05T00:55:21.686Z,10.75
2022-10-05T00:56:21.647Z,10.74
2022-10-05T00:57:21.640Z,10.72
2022-10-05T00:58:21.626Z,10.71
2022-10-05T00:59:21.608Z,10.67
2022-10-05T01:00:21.608Z,10.60
2022-10-05T01:01:21.633Z,10.56
2022-10-05T01:02:21.602Z,10.51
2022-10-05T01:03:21.567Z,10.53
2022-10-05T01:04:21.564Z,10.49
2022-10-05T01:05:21.544Z,10.49
2022-10-05T01:06:21.557Z,10.46
2022-10-05T01:07:21.524Z,10.42
2022-10-05T01:08:21.515Z,10.37
2022-10-05T01:09:21.496Z,10.31
2022-10-05T01:10:21.488Z,10.31
2022-10-05T01:11:21.477Z,10.25
2022-10-05T01:12:21.487Z,10.22
2022-10-05T01:13:21.455Z,10.19
2022-10-05T01:14:21.446Z,10.19
2022-10-05T01:15:21.427Z,10.23
2022-10-05T01:16:21.471Z,10.30
2022-10-05T01:17:21.426Z,10.31
2022-10-05T01:18:21.416Z,10.31
2022-10-05T01:19:21.387Z,10.31
2022-10-05T01:20:21.376Z,10.25
2022-10-05T01:21:21.369Z,10.17
2022-10-05T01:22:21.356Z,10.07
2022-10-05T01:23:21.366Z,9.99
2022-10-05T01:24:21.335Z,9.92
2022-10-05T01:25:21.319Z,9.89
2022-10-05T01:26:21.318Z,9.87
2022-10-05T01:27:21.296Z,9.89
2022-10-05T01:28:21.350Z,9.87
2022-10-05T01:29:21.448Z,9.86
2022-10-05T01:30:21.266Z,9.80
2022-10-05T01:31:21.288Z,9.77
2022-10-05T01:32:21.251Z,9.69
2022-10-05T01:33:21.227Z,9.65
2022-10-05T01:34:21.229Z,9.55
2022-10-05T01:35:21.236Z,9.44
2022-10-05T01:36:21.204Z,9.39
2022-10-05T01:37:21.187Z,9.39
2022-10-05T01:38:21.175Z,9.37
2022-10-05T01:39:21.156Z,9.36
2022-10-05T01:40:21.156Z,9.36
2022-10-05T01:41:21.155Z,9.34
2022-10-05T01:42:21.139Z,9.32
2022-10-05T01:43:21.124Z,9.28
2022-10-05T01:44:21.107Z,9.22
2022-10-05T01:45:21.096Z,9.14
2022-10-05T01:46:21.135Z,9.11
2022-10-05T01:47:21.096Z,9.08
2022-10-05T01:48:21.067Z,9.04
2022-10-05T01:49:21.055Z,9.02
2022-10-05T01:50:21.048Z,8.97
2022-10-05T01:51:21.032Z,8.95
2022-10-05T01:52:21.023Z,8.97
2022-10-05T01:53:21.035Z,8.97
2022-10-05T01:54:21.004Z,8.99
2022-10-05T01:55:20.985Z,8.97
2022-10-05T01:56:20.979Z,8.97
2022-10-05T01:57:20.964Z,9.00
2022-10-05T01:58:20.955Z,8.99
2022-10-05T01:59:20.955Z,8.99
2022-10-05T02:00:20.933Z,8.94
2022-10-05T02:01:20.956Z,8.89
2022-10-05T02:02:20.974Z,8.85
2022-10-05T02:03:20.903Z,8.82
2022-10-05T02:04:43.365Z,8.81
2022-10-05T02:05:21.878Z,8.82
2022-10-05T02:06:20.866Z,8.87
2022-10-05T02:07:20.845Z,8.94
2022-10-05T02:08:20.851Z,8.99
2022-10-05T02:09:20.825Z,9.03
2022-10-05T02:10:20.845Z,9.00
2022-10-05T02:11:20.808Z,9.02
2022-10-05T02:12:20.805Z,9.11
2022-10-05T02:13:20.788Z,9.19
2022-10-05T02:14:20.777Z,9.32
2022-10-05T02:15:20.765Z,9.44
2022-10-05T02:16:20.883Z,9.51
2022-10-05T02:17:20.745Z,9.58
2022-10-05T02:18:20.733Z,9.62
2022-10-05T02:19:20.715Z,9.69
2022-10-05T02:20:20.713Z,9.73
2022-10-05T02:21:20.694Z,9.76
2022-10-05T02:22:20.704Z,9.77
2022-10-05T02:23:20.675Z,9.79
2022-10-05T02:24:20.664Z,9.80
2022-10-05T02:25:20.654Z,9.80
2022-10-05T02:26:20.668Z,9.82
2022-10-05T02:27:20.634Z,9.82
2022-10-05T02:28:20.711Z,9.86
2022-10-05T02:29:20.607Z,9.84
2022-10-05T02:30:20.602Z,9.87
2022-10-05T02:31:20.645Z,9.95
2022-10-05T02:32:20.575Z,9.92
2022-10-05T02:33:20.585Z,9.95
2022-10-05T02:34:20.554Z,10.01
2022-10-05T02:35:20.548Z,10.02
2022-10-05T02:36:20.533Z,10.07
2022-10-05T02:37:20.514Z,10.13
2022-10-05T02:38:20.512Z,10.16
2022-10-05T02:39:20.513Z,10.17
2022-10-05T02:40:20.484Z,10.25
2022-10-05T02:41:20.474Z,10.31
2022-10-05T02:42:20.464Z,10.33
2022-10-05T02:43:20.454Z,10.35
2022-10-05T02:44:20.445Z,10.42
2022-10-05T02:45:20.462Z,10.49
2022-10-05T02:46:20.466Z,10.53
2022-10-05T02:47:20.412Z,10.53
2022-10-05T02:48:20.402Z,10.56
2022-10-05T02:49:20.383Z,10.60
2022-10-05T02:50:20.374Z,10.63
2022-10-05T02:51:20.383Z,10.68
2022-10-05T02:52:20.354Z,10.69
2022-10-05T02:53:20.343Z,10.74
2022-10-05T02:54:20.333Z,10.72
2022-10-05T02:55:20.314Z,10.69
2022-10-05T02:56:20.307Z,10.71
2022-10-05T02:57:20.317Z,10.74
2022-10-05T02:58:20.283Z,10.74
2022-10-05T02:59:20.273Z,10.69
2022-10-05T03:00:20.264Z,10.68
2022-10-05T03:01:20.306Z,10.67
2022-10-05T03:02:20.282Z,10.67
2022-10-05T03:03:20.247Z,10.64
2022-10-05T03:04:20.213Z,10.64
2022-10-05T03:05:20.203Z,10.68
2022-10-05T03:06:20.195Z,10.63
2022-10-05T03:07:20.182Z,10.59
2022-10-05T03:08:20.194Z,10.61
2022-10-05T03:09:20.162Z,10.64
2022-10-05T03:10:20.152Z,10.63
2022-10-05T03:11:20.137Z,10.61
2022-10-05T03:12:20.123Z,10.61
2022-10-05T03:13:20.113Z,10.63
2022-10-05T03:14:20.132Z,10.54
2022-10-05T03:15:20.090Z,10.53
2022-10-05T03:16:20.174Z,10.51
2022-10-05T03:17:20.064Z,10.51
2022-10-05T03:18:20.061Z,10.53
2022-10-05T03:19:20.042Z,10.57
2022-10-05T03:20:20.064Z,10.57
2022-10-05T03:21:20.022Z,10.59
2022-10-05T03:22:20.017Z,10.49
2022-10-05T03:23:27.053Z,10.51
2022-10-05T03:24:19.993Z,10.48
2022-10-05T03:25:19.974Z,10.46
2022-10-05T03:26:19.994Z,10.41
2022-10-05T03:27:19.963Z,10.33
2022-10-05T03:28:19.986Z,10.26
2022-10-05T03:29:19.933Z,10.25
2022-10-05T03:30:19.932Z,10.26
2022-10-05T03:31:19.974Z,10.28
2022-10-05T03:32:19.921Z,10.26
2022-10-05T03:33:19.892Z,10.30
2022-10-05T03:34:19.895Z,10.33
2022-10-05T03:35:19.866Z,10.38
2022-10-05T03:36:19.861Z,10.44
2022-10-05T03:37:19.893Z,10.51
2022-10-05T03:38:19.833Z,10.61
2022-10-05T03:39:19.813Z,10.69
2022-10-05T03:40:19.813Z,10.72
2022-10-05T03:41:19.802Z,10.74
2022-10-05T03:42:19.792Z,10.75
2022-10-05T03:43:19.803Z,10.79
2022-10-05T03:44:19.763Z,10.69
2022-10-05T03:45:19.765Z,10.69
2022-10-05T03:46:19.781Z,10.76
2022-10-05T03:47:19.730Z,10.81
2022-10-05T03:48:19.742Z,10.84
2022-10-05T03:49:19.706Z,10.87
2022-10-05T03:50:19.707Z,10.90
2022-10-05T03:51:19.683Z,10.92
2022-10-05T03:52:19.674Z,10.96
2022-10-05T03:53:19.686Z,10.96
2022-10-05T03:54:19.692Z,11.02
2022-10-05T03:55:19.642Z,11.05
2022-10-05T03:56:19.634Z,11.07
2022-10-05T03:57:19.621Z,11.08
2022-10-05T03:58:19.611Z,11.11
2022-10-05T03:59:19.592Z,11.19
2022-10-05T04:00:19.616Z,11.23
2022-10-05T04:01:19.597Z,11.27
2022-10-05T04:02:19.610Z,11.18
2022-10-05T04:03:19.563Z,11.19
2022-10-05T04:04:19.553Z,11.26
2022-10-05T04:05:19.531Z,11.26
2022-10-05T04:06:19.553Z,11.27
2022-10-05T04:07:19.511Z,11.27
2022-10-05T04:08:19.493Z,11.25
2022-10-05T04:09:19.482Z,11.26
2022-10-05T04:10:19.481Z,11.32
2022-10-05T04:11:19.486Z,11.25
2022-10-05T04:12:19.445Z,11.19
2022-10-05T04:13:19.438Z,11.17
2022-10-05T04:14:19.425Z,11.14
2022-10-05T04:15:19.420Z,11.10
2022-10-05T04:16:19.490Z,11.12
2022-10-05T04:17:19.413Z,11.05
2022-10-05T04:18:19.382Z,11.00
2022-10-05T04:19:19.373Z,11.00
2022-10-05T04:20:19.352Z,11.00
2022-10-05T04:21:23.507Z,11.04
2022-10-05T04:22:19.332Z,11.02
2022-10-05T04:23:19.343Z,10.97
2022-10-05T04:24:19.312Z,11.00
2022-10-05T04:25:19.303Z,10.96
2022-10-05T04:26:19.291Z,11.04
2022-10-05T04:27:19.282Z,11.00
2022-10-05T04:28:19.334Z,10.99
2022-10-05T04:29:19.262Z,11.05
2022-10-05T04:30:19.243Z,11.11
2022-10-05T04:31:19.275Z,11.10
2022-10-05T04:32:19.213Z,11.12
2022-10-05T04:33:19.213Z,11.14
2022-10-05T04:34:19.231Z,11.17
2022-10-05T04:35:19.212Z,11.22
2022-10-05T04:36:19.183Z,11.23
2022-10-05T04:37:19.171Z,11.26
2022-10-05T04:38:19.162Z,11.25
2022-10-05T04:39:19.151Z,11.26
2022-10-05T04:40:19.163Z,11.27
2022-10-05T04:41:19.133Z,11.32
2022-10-05T04:42:19.113Z,11.33
2022-10-05T04:43:19.131Z,11.37
2022-10-05T04:44:19.083Z,11.40
2022-10-05T04:45:19.080Z,11.40
2022-10-05T04:46:19.115Z,11.37
2022-10-05T04:47:19.064Z,11.32
2022-10-05T04:48:19.048Z,11.25
2022-10-05T04:49:19.033Z,11.27
2022-10-05T04:50:19.024Z,11.33
2022-10-05T04:51:19.033Z,11.23
2022-10-05T04:52:18.994Z,11.27
2022-10-05T04:53:18.995Z,11.36
2022-10-05T04:54:18.973Z,11.36
2022-10-05T04:55:18.990Z,11.35
2022-10-05T04:56:18.953Z,11.29
2022-10-05T04:57:19.003Z,11.30
2022-10-05T04:58:18.944Z,11.19
2022-10-05T04:59:18.960Z,11.17
2022-10-05T05:00:18.905Z,11.25
2022-10-05T05:01:18.950Z,11.23
2022-10-05T05:02:18.903Z,11.22
2022-10-05T05:03:18.872Z,11.25
2022-10-05T05:04:18.861Z,11.18
2022-10-05T05:05:18.883Z,11.18
2022-10-05T05:06:18.843Z,11.19
2022-10-05T05:07:18.832Z,11.23
2022-10-05T05:08:18.833Z,11.15
2022-10-05T05:09:18.804Z,11.23
2022-10-05T05:10:18.792Z,11.30
2022-10-05T05:11:23.686Z,11.40
2022-10-05T05:12:19.792Z,11.44
2022-10-05T05:13:18.762Z,11.29
2022-10-05T05:14:18.763Z,11.35
2022-10-05T05:15:18.742Z,11.43
2022-10-05T05:16:18.780Z,11.47
2022-10-05T05:17:18.712Z,11.50
2022-10-05T05:18:18.702Z,11.50
2022-10-05T05:19:18.732Z,11.55
2022-10-05T05:20:18.684Z,11.59
2022-10-05T05:21:18.672Z,11.55
2022-10-05T05:22:18.662Z,11.55
2022-10-05T05:23:18.654Z,11.51
2022-10-05T05:24:18.633Z,11.54
2022-10-05T05:25:18.643Z,11.52
2022-10-05T05:26:18.613Z,11.54
2022-10-05T05:27:18.603Z,11.50
2022-10-05T05:28:18.627Z,11.55
2022-10-05T05:29:18.582Z,11.50
2022-10-05T05:30:18.563Z,11.47
2022-10-05T05:31:18.634Z,11.48
2022-10-05T05:32:18.551Z,11.51
2022-10-05T05:33:18.534Z,11.41
2022-10-05T05:34:18.522Z,11.37
2022-10-05T05:35:18.520Z,11.36
2022-10-05T05:36:22.883Z,11.44
2022-10-05T05:37:18.492Z,11.50
2022-10-05T05:38:18.481Z,11.55
2022-10-05T05:39:18.472Z,11.59
2022-10-05T05:40:18.452Z,11.47
2022-10-05T05:41:18.447Z,11.55
2022-10-05T05:42:18.453Z,11.52
2022-10-05T05:43:18.422Z,11.57
2022-10-05T05:44:18.412Z,11.54
2022-10-05T05:45:18.410Z,11.55
2022-10-05T05:46:18.422Z,11.63
2022-10-05T05:47:18.436Z,11.62
2022-10-05T05:48:18.370Z,11.62
2022-10-05T05:49:18.357Z,11.66
2022-10-05T05:50:18.342Z,11.72
2022-10-05T05:51:18.332Z,11.70
2022-10-05T05:52:18.321Z,11.69
2022-10-05T05:53:18.334Z,11.78
2022-10-05T05:54:18.302Z,11.81
2022-10-05T05:55:18.291Z,11.78
2022-10-05T05:56:18.272Z,11.83
2022-10-05T05:57:18.271Z,11.77
2022-10-05T05:58:18.252Z,11.78
2022-10-05T05:59:18.321Z,11.78
2022-10-05T06:00:18.240Z,11.86
2022-10-05T06:01:32.301Z,11.95
2022-10-05T06:02:19.307Z,11.95
2022-10-05T06:03:18.326Z,11.95
2022-10-05T06:04:18.182Z,11.91
2022-10-05T06:05:18.205Z,11.91
2022-10-05T06:06:18.161Z,11.99
2022-10-05T06:07:18.152Z,11.87
2022-10-05T06:08:18.145Z,11.88
2022-10-05T06:09:18.132Z,11.97
2022-10-05T06:10:18.120Z,12.02
2022-10-05T06:11:18.130Z,12.00
2022-10-05T06:12:18.093Z,12.06
2022-10-05T06:13:18.083Z,11.97
2022-10-05T06:14:18.072Z,11.95
2022-10-05T06:15:18.062Z,12.03
2022-10-05T06:16:18.100Z,12.04
2022-10-05T06:17:18.061Z,12.17
2022-10-05T06:18:18.022Z,12.32
2022-10-05T06:19:18.021Z,12.40
2022-10-05T06:20:18.005Z,12.35
2022-10-05T06:21:18.001Z,12.25
2022-10-05T06:22:18.011Z,12.32
2022-10-05T06:23:17.973Z,12.47
2022-10-05T06:24:17.952Z,12.49
2022-10-05T06:25:17.954Z,12.54
2022-10-05T06:26:17.940Z,12.49
2022-10-05T06:27:17.932Z,12.57
2022-10-05T06:28:17.976Z,12.62
2022-10-05T06:29:17.904Z,12.68
2022-10-05T06:30:17.898Z,12.65
2022-10-05T06:31:17.959Z,12.64
2022-10-05T06:32:17.871Z,12.62
2022-10-05T06:33:17.867Z,12.60
2022-10-05T06:34:17.865Z,12.67
2022-10-05T06:35:17.845Z,12.75
2022-10-05T06:36:17.824Z,12.85
2022-10-05T06:37:17.822Z,12.95
2022-10-05T06:38:17.803Z,13.09
2022-10-05T06:39:17.822Z,13.11
2022-10-05T06:40:17.785Z,13.04
2022-10-05T06:41:17.773Z,13.09
2022-10-05T06:42:17.755Z,13.11
2022-10-05T06:43:17.750Z,13.13
2022-10-05T06:44:17.733Z,13.09
2022-10-05T06:45:17.746Z,13.00
2022-10-05T06:46:17.756Z,12.93
2022-10-05T06:47:17.703Z,12.91
2022-10-05T06:48:17.683Z,12.98
2022-10-05T06:49:17.681Z,13.04
2022-10-05T06:50:17.683Z,13.03
2022-10-05T06:51:17.663Z,13.12
2022-10-05T06:52:17.643Z,13.12
2022-10-05T06:53:17.633Z,13.09
2022-10-05T06:54:17.623Z,12.93
2022-10-05T06:55:17.613Z,12.79
2022-10-05T06:56:17.625Z,12.79
2022-10-05T06:57:17.596Z,12.90
2022-10-05T06:58:17.573Z,12.82
2022-10-05T06:59:17.573Z,12.91
2022-10-05T07:00:17.553Z,12.98
2022-10-05T07:01:17.566Z,12.87
2022-10-05T07:02:17.588Z,12.76
2022-10-05T07:03:17.523Z,12.70
2022-10-05T07:04:17.511Z,12.64
2022-10-05T07:05:17.506Z,12.75
2022-10-05T07:06:17.492Z,12.97
2022-10-05T07:07:17.487Z,13.04
2022-10-05T07:08:17.475Z,13.11
2022-10-05T07:09:17.453Z,13.04
2022-10-05T07:10:17.437Z,13.00
2022-10-05T07:11:17.436Z,12.93
2022-10-05T07:12:17.413Z,12.91
2022-10-05T07:13:22.064Z,12.91
2022-10-05T07:14:17.402Z,12.78
2022-10-05T07:15:17.391Z,12.78
2022-10-05T07:16:17.424Z,12.87
2022-10-05T07:17:17.365Z,12.91
2022-10-05T07:18:17.353Z,12.86
2022-10-05T07:19:17.394Z,12.67
2022-10-05T07:20:17.332Z,12.67
2022-10-05T07:21:17.325Z,12.70
2022-10-05T07:22:17.305Z,12.75
2022-10-05T07:23:17.295Z,12.91
2022-10-05T07:24:17.402Z,13.01
2022-10-05T07:25:17.275Z,13.03
2022-10-05T07:26:17.263Z,13.09
2022-10-05T07:27:17.255Z,13.05
2022-10-05T07:28:17.259Z,13.12
2022-10-05T07:29:17.224Z,13.11
2022-10-05T07:30:17.236Z,13.09
2022-10-05T07:31:17.271Z,13.03
2022-10-05T07:32:17.195Z,13.04
2022-10-05T07:33:17.185Z,13.00
2022-10-05T07:34:17.165Z,13.00
2022-10-05T07:35:17.195Z,13.03
2022-10-05T07:36:17.160Z,12.93
2022-10-05T07:37:17.134Z,12.91
2022-10-05T07:38:17.135Z,12.93
2022-10-05T07:39:17.119Z,13.03
2022-10-05T07:40:17.105Z,13.12
2022-10-05T07:41:17.114Z,13.12
2022-10-05T07:42:17.083Z,13.08
2022-10-05T07:43:17.074Z,13.08
2022-10-05T07:44:17.060Z,13.09
2022-10-05T07:45:17.051Z,13.13
2022-10-05T07:46:17.117Z,13.11
2022-10-05T07:47:17.025Z,13.19
2022-10-05T07:48:17.005Z,13.19
2022-10-05T07:49:17.006Z,13.30
2022-10-05T07:50:16.986Z,13.39
2022-10-05T07:51:16.984Z,13.35
2022-10-05T07:52:16.989Z,13.28
2022-10-05T07:53:16.966Z,13.42
2022-10-05T07:54:16.947Z,13.47
2022-10-05T07:55:16.934Z,13.31
2022-10-05T07:56:16.926Z,13.33
2022-10-05T07:57:16.934Z,13.31
2022-10-05T07:58:16.907Z,13.25
2022-10-05T07:59:16.885Z,13.25
2022-10-05T08:00:16.883Z,13.18
2022-10-05T08:01:16.866Z,13.12
2022-10-05T08:02:16.942Z,13.04
2022-10-05T08:03:17.022Z,13.01
2022-10-05T08:04:16.835Z,13.03
2022-10-05T08:05:16.817Z,13.08
2022-10-05T08:06:16.816Z,13.08
2022-10-05T08:07:16.867Z,13.11
2022-10-05T08:08:19.593Z,13.04
2022-10-05T08:09:16.797Z,12.98
2022-10-05T08:10:16.786Z,13.05
2022-10-05T08:11:16.755Z,13.13
2022-10-05T08:12:16.749Z,13.23
2022-10-05T08:13:16.727Z,13.35
2022-10-05T08:14:16.734Z,13.44
2022-10-05T08:15:16.765Z,13.50
2022-10-05T08:16:16.829Z,13.56
2022-10-05T08:17:16.685Z,13.63
2022-10-05T08:18:16.684Z,13.50
2022-10-05T08:19:16.665Z,13.38
2022-10-05T08:20:16.656Z,13.35
2022-10-05T08:21:16.657Z,13.44
2022-10-05T08:22:16.636Z,13.42
2022-10-05T08:23:16.617Z,13.42
2022-10-05T08:24:16.616Z,13.50
2022-10-05T08:25:16.596Z,13.54
2022-10-05T08:26:16.616Z,13.54
2022-10-05T08:27:16.590Z,13.56
2022-10-05T08:28:16.597Z,13.60
2022-10-05T08:29:16.575Z,13.68
2022-10-05T08:30:16.540Z,13.75
2022-10-05T08:31:16.595Z,13.63
2022-10-05T08:32:16.547Z,13.62
2022-10-05T08:33:16.508Z,13.72
2022-10-05T08:34:16.496Z,13.70
2022-10-05T08:35:16.487Z,13.72
2022-10-05T08:36:16.476Z,13.77
2022-10-05T08:37:16.457Z,13.75
2022-10-05T08:38:16.488Z,13.92
2022-10-05T08:39:16.437Z,14.05
2022-10-05T08:40:16.437Z,14.20
2022-10-05T08:41:16.417Z,14.08
2022-10-05T08:42:16.408Z,14.12
2022-10-05T08:43:16.397Z,14.30
2022-10-05T08:44:16.427Z,14.41
2022-10-05T08:45:16.368Z,14.30
2022-10-05T08:46:16.394Z,14.43
2022-10-05T08:47:16.349Z,14.51
2022-10-05T08:48:16.337Z,14.47
2022-10-05T08:49:16.356Z,14.36
2022-10-05T08:50:16.331Z,14.35
2022-10-05T08:51:16.306Z,14.28
2022-10-05T08:52:16.297Z,14.47
2022-10-05T08:53:16.278Z,14.68
2022-10-05T08:54:16.279Z,14.58
2022-10-05T08:55:16.287Z,14.48
2022-10-05T08:56:19.845Z,14.44
2022-10-05T08:57:16.239Z,14.47
2022-10-05T08:58:16.228Z,14.63
2022-10-05T08:59:16.219Z,14.66
2022-10-05T09:00:16.208Z,14.62
2022-10-05T09:01:16.264Z,14.51
2022-10-05T09:02:16.235Z,14.65
2022-10-05T09:03:16.174Z,14.63
2022-10-05T09:04:16.158Z,14.77
2022-10-05T09:05:16.175Z,14.85
2022-10-05T09:06:16.139Z,14.99
2022-10-05T09:07:16.139Z,15.14
2022-10-05T09:08:16.119Z,14.84
2022-10-05T09:09:16.099Z,14.78
2022-10-05T09:10:16.097Z,14.69
2022-10-05T09:11:16.079Z,14.81
2022-10-05T09:12:16.089Z,14.84
2022-10-05T09:13:16.063Z,14.88
2022-10-05T09:14:16.056Z,14.99
2022-10-05T09:15:25.835Z,15.06
2022-10-05T09:16:17.047Z,15.19
2022-10-05T09:17:16.011Z,15.36
2022-10-05T09:18:16.027Z,15.40
2022-10-05T09:19:15.989Z,15.40
2022-10-05T09:20:15.980Z,15.46
2022-10-05T09:21:15.969Z,15.46
2022-10-05T09:22:15.957Z,15.65
2022-10-05T09:23:23.019Z,15.62
2022-10-05T09:24:15.938Z,15.61
2022-10-05T09:25:15.920Z,15.68
2022-10-05T09:26:15.919Z,15.79
2022-10-05T09:27:15.899Z,15.68
2022-10-05T09:28:15.918Z,15.58
2022-10-05T09:29:15.901Z,15.64
2022-10-05T09:30:15.869Z,15.55
2022-10-05T09:31:15.920Z,15.57
2022-10-05T09:32:16.621Z,15.64
2022-10-05T09:33:15.831Z,15.61
2022-10-05T09:34:15.821Z,15.76
2022-10-05T09:35:15.822Z,15.94
2022-10-05T09:36:15.803Z,16.05
2022-10-05T09:37:15.789Z,15.97
2022-10-05T09:38:15.783Z,15.98
2022-10-05T09:39:15.761Z,16.21
2022-10-05T09:40:15.779Z,16.23
2022-10-05T09:41:15.741Z,16.38
2022-10-05T09:42:15.732Z,16.49
2022-10-05T09:43:15.711Z,16.42
2022-10-05T09:44:15.715Z,16.58
2022-10-05T09:45:20.375Z,16.64
2022-10-05T09:46:16.776Z,16.50
2022-10-05T09:47:15.674Z,16.26
2022-10-05T09:48:15.663Z,15.98
2022-10-05T09:49:15.650Z,16.05
2022-10-05T09:50:15.642Z,16.15
2022-10-05T09:51:15.643Z,16.24
2022-10-05T09:52:18.941Z,16.20
2022-10-05T09:53:15.603Z,16.20
2022-10-05T09:54:15.601Z,16.12
2022-10-05T09:55:15.580Z,16.23
2022-10-05T09:56:15.608Z,16.32
2022-10-05T09:57:15.578Z,16.41
2022-10-05T09:58:15.545Z,16.72
2022-10-05T09:59:15.533Z,16.90
2022-10-05T10:00:15.523Z,16.99
2022-10-05T10:01:29.273Z,16.97
2022-10-05T10:02:16.556Z,16.89
2022-10-05T10:03:15.520Z,16.76
2022-10-05T10:04:15.485Z,16.69
2022-10-05T10:05:15.473Z,16.61
2022-10-05T10:06:15.462Z,16.51
2022-10-05T10:07:15.469Z,16.43
2022-10-05T10:08:15.435Z,16.56
2022-10-05T10:09:15.423Z,16.58
2022-10-05T10:10:15.414Z,16.58
2022-10-05T10:11:15.404Z,16.57
2022-10-05T10:12:15.404Z,16.54
2022-10-05T10:13:15.394Z,16.66
2022-10-05T10:14:15.376Z,16.74
2022-10-05T10:15:15.373Z,16.50
2022-10-05T10:16:15.380Z,16.46
2022-10-05T10:17:15.334Z,16.42
2022-10-05T10:18:15.329Z,16.54
2022-10-05T10:19:15.348Z,16.66
2022-10-05T10:20:15.308Z,16.76
2022-10-05T10:21:15.285Z,16.83
2022-10-05T10:22:15.285Z,16.83
2022-10-05T10:23:15.258Z,16.81
2022-10-05T10:24:15.265Z,16.79
2022-10-05T10:25:15.266Z,16.75
2022-10-05T10:26:15.226Z,16.83
2022-10-05T10:27:15.215Z,17.05
2022-10-05T10:28:15.271Z,17.15
2022-10-05T10:29:15.219Z,17.19
2022-10-05T10:30:15.185Z,17.01
2022-10-05T10:31:15.241Z,17.04
2022-10-05T10:32:15.167Z,17.27
2022-10-05T10:33:15.148Z,17.49
2022-10-05T10:34:15.139Z,17.49
2022-10-05T10:35:15.159Z,17.26
2022-10-05T10:36:15.119Z,17.26
2022-10-05T10:37:15.117Z,17.16
2022-10-05T10:38:15.097Z,17.20
2022-10-05T10:39:15.086Z,17.38
2022-10-05T10:40:15.067Z,17.60
2022-10-05T10:41:15.070Z,17.51
2022-10-05T10:42:15.079Z,17.30
2022-10-05T10:43:15.037Z,17.41
2022-10-05T10:44:15.027Z,17.45
2022-10-05T10:45:15.010Z,17.51
2022-10-05T10:46:15.039Z,17.54
2022-10-05T10:47:14.991Z,17.67
2022-10-05T10:48:14.997Z,17.92
2022-10-05T10:49:14.984Z,18.03
2022-10-05T10:50:14.960Z,18.20
2022-10-05T10:51:14.947Z,18.08
2022-10-05T10:52:14.928Z,18.00
2022-10-05T10:53:14.947Z,17.83
2022-10-05T10:54:14.909Z,18.01
2022-10-05T10:55:14.908Z,18.03
2022-10-05T10:56:14.889Z,18.07
2022-10-05T10:57:14.878Z,18.07
2022-10-05T10:58:16.198Z,17.83
2022-10-05T10:59:14.879Z,17.80
2022-10-05T11:00:14.943Z,17.86
2022-10-05T11:01:14.870Z,17.83
2022-10-05T11:02:14.885Z,17.95
2022-10-05T11:03:14.876Z,18.13
2022-10-05T11:04:14.801Z,18.11
2022-10-05T11:05:14.839Z,18.19
2022-10-05T11:06:14.778Z,18.25
2022-10-05T11:07:14.770Z,18.26
2022-10-05T11:08:14.761Z,18.23
2022-10-05T11:09:14.749Z,18.15
2022-10-05T11:10:14.782Z,18.08
2022-10-05T11:11:14.750Z,18.13
2022-10-05T11:12:14.712Z,18.20
2022-10-05T11:13:14.709Z,18.07
2022-10-05T11:14:14.696Z,18.10
2022-10-05T11:15:14.683Z,18.16
2022-10-05T11:16:17.323Z,18.11
2022-10-05T11:17:15.682Z,18.18
2022-10-05T11:18:14.641Z,18.05
2022-10-05T11:19:14.631Z,17.97
2022-10-05T11:20:14.679Z,17.74
2022-10-05T11:21:14.620Z,17.80
2022-10-05T11:22:14.600Z,17.65
2022-10-05T11:23:14.619Z,17.52
2022-10-05T11:24:14.580Z,17.54
2022-10-05T11:25:14.565Z,17.56
2022-10-05T11:26:14.557Z,17.56
2022-10-05T11:27:14.581Z,17.76
2022-10-05T11:28:14.565Z,17.86
2022-10-05T11:29:14.552Z,17.86
2022-10-05T11:30:14.579Z,17.94
2022-10-05T11:31:14.523Z,17.76
2022-10-05T11:32:14.491Z,17.80
2022-10-05T11:33:14.492Z,17.65
2022-10-05T11:34:14.473Z,17.74
2022-10-05T11:35:14.492Z,17.82
2022-10-05T11:36:14.452Z,17.70
2022-10-05T11:37:14.452Z,17.74
2022-10-05T11:38:14.422Z,17.86
2022-10-05T11:39:14.414Z,17.95
2022-10-05T11:40:14.484Z,17.86
2022-10-05T11:41:14.401Z,17.64
2022-10-05T11:42:14.382Z,17.64
2022-10-05T11:43:14.374Z,17.65
2022-10-05T11:44:14.375Z,17.80
2022-10-05T11:45:14.353Z,17.95
2022-10-05T11:46:14.436Z,18.05
2022-10-05T11:47:14.334Z,18.20
2022-10-05T11:48:14.314Z,18.33
2022-10-05T11:49:14.312Z,18.49
2022-10-05T11:50:14.353Z,18.56
2022-10-05T11:51:14.317Z,18.44
2022-10-05T11:52:14.278Z,18.47
2022-10-05T11:53:14.295Z,18.65
2022-10-05T11:54:14.254Z,18.88
2022-10-05T11:55:14.287Z,18.93
2022-10-05T11:56:14.244Z,18.86
2022-10-05T11:57:14.252Z,18.81
2022-10-05T11:58:14.204Z,18.84
2022-10-05T11:59:14.211Z,18.68
2022-10-05T12:00:14.210Z,18.71
2022-10-05T12:01:14.175Z,18.62
2022-10-05T12:02:14.169Z,18.62
2022-10-05T12:03:14.356Z,18.59
2022-10-05T12:04:14.172Z,18.66
2022-10-05T12:05:14.135Z,18.71
2022-10-05T12:06:14.118Z,18.83
2022-10-05T12:07:14.107Z,18.98
2022-10-05T12:08:14.104Z,19.08
2022-10-05T12:09:14.099Z,19.11
2022-10-05T12:10:14.210Z,19.26
2022-10-05T12:11:14.056Z,19.44
2022-10-05T12:12:14.046Z,19.41
2022-10-05T12:13:14.036Z,19.45
2022-10-05T12:14:14.076Z,19.41
2022-10-05T12:15:14.020Z,19.34
2022-10-05T12:16:14.035Z,19.29
2022-10-05T12:17:13.997Z,19.34
2022-10-05T12:18:13.978Z,19.30
2022-10-05T12:19:13.966Z,19.31
2022-10-05T12:20:14.076Z,19.33
2022-10-05T12:21:13.949Z,19.22
2022-10-05T12:22:13.931Z,19.24
2022-10-05T12:23:13.917Z,19.33
2022-10-05T12:24:13.901Z,19.39
2022-10-05T12:25:13.898Z,19.49
2022-10-05T12:26:13.901Z,19.52
2022-10-05T12:27:13.870Z,19.58
2022-10-05T12:28:13.894Z,19.48
2022-10-05T12:29:13.857Z,19.48
2022-10-05T12:30:13.910Z,19.58
2022-10-05T12:31:13.900Z,19.64
2022-10-05T12:32:13.828Z,19.66
2022-10-05T12:33:13.808Z,19.63
2022-10-05T12:34:13.789Z,19.69
2022-10-05T12:35:13.781Z,19.69
2022-10-05T12:36:13.758Z,19.73
2022-10-05T12:37:13.759Z,19.76
2022-10-05T12:38:13.757Z,19.81
2022-10-05T12:39:13.728Z,19.77
2022-10-05T12:40:13.719Z,19.89
2022-10-05T12:41:13.711Z,19.94
2022-10-05T12:42:13.692Z,20.02
2022-10-05T12:43:13.710Z,20.13
2022-10-05T12:44:13.672Z,20.04
2022-10-05T12:45:13.661Z,20.11
2022-10-05T12:46:13.686Z,20.09
2022-10-05T12:47:13.640Z,20.13
2022-10-05T12:48:13.621Z,20.14
2022-10-05T12:49:13.640Z,20.13
2022-10-05T12:50:13.642Z,20.18
2022-10-05T12:51:13.597Z,20.24
2022-10-05T12:52:13.600Z,20.11
2022-10-05T12:53:13.573Z,20.03
2022-10-05T12:54:13.551Z,20.21
2022-10-05T12:55:13.570Z,20.26